Winfield, Iowa
Current Conditions -  °F | °C
As of 1:15 AM on Friday 31 Oct 2014 (Local Time) from KMPZ Reporting Station
Overcast Overcast  
Wind Chill:   Ceiling: 3800
Heat Index:   Visibility: 10mi
Dew Point:   Wind: 16mph
Humidity: 71%   Direction: 340°NNW
Pressure: 30.15"   Gusts: NA
Location:  41.12°N, 91.44°W
Report Text: KMPZ 310615Z AUTO 34014KT 10SM BKN038 BKN044 OVC050 09/04 A3015 RMK AO2 T00850036
Loading
Personal Weather Stations






























Interactive Weather Map
Tropical Storm Tracking
New forecast layout! Learn more

10-Day Weather Forecast

Advertisements
Track Severe Weather on mobile